Time;durP1;ratioP1;P1;durP2;ratioP2;P2;SDS_P1;SDS_P2;PMS_P1;PMS_P2;Temp;Humidity;BMP_temperature;BMP_pressure;BME280_temperature;BME280_humidity;BME280_pressure;Samples;Min_cycle;Max_cycle;Signal;HPM_P1;HPM_P2
2022/03/31 00:00:32;;;;;;;4.90;4.40;;;8.00;99.90;;;;;;5069971;28;21356;-75
2022/03/31 00:03:00;;;;;;;8.53;4.63;;;8.10;99.90;;;;;;5065002;28;20578;-75
2022/03/31 00:05:27;;;;;;;7.13;4.40;;;8.10;99.90;;;;;;5067342;28;20461;-75
2022/03/31 00:07:55;;;;;;;8.87;5.73;;;8.10;99.90;;;;;;5082145;28;20489;-76
2022/03/31 00:10:23;;;;;;;8.37;4.60;;;7.70;99.90;;;;;;5077296;28;20788;-76
2022/03/31 00:12:51;;;;;;;4.50;3.77;;;7.80;99.90;;;;;;5072448;28;20779;-75
2022/03/31 00:15:18;;;;;;;8.00;5.33;;;7.90;99.90;;;;;;5073991;28;20461;-76
2022/03/31 00:17:46;;;;;;;16.97;5.13;;;7.90;99.90;;;;;;5069504;28;20432;-75
2022/03/31 00:20:13;;;;;;;10.87;5.20;;;7.90;99.90;;;;;;5074241;28;20879;-76
2022/03/31 00:22:40;;;;;;;6.93;5.13;;;7.70;99.90;;;;;;5078493;28;20998;-75
2022/03/31 00:25:08;;;;;;;9.63;4.10;;;7.70;99.90;;;;;;5069371;28;20455;-75
2022/03/31 00:27:35;;;;;;;10.37;6.30;;;7.60;99.90;;;;;;5070613;28;21068;-75
2022/03/31 00:30:02;;;;;;;6.70;4.60;;;7.50;99.90;;;;;;5075254;28;20866;-76
2022/03/31 00:32:29;;;;;;;8.87;4.80;;;7.60;99.90;;;;;;5073342;28;20491;-75
2022/03/31 00:34:57;;;;;;;13.50;5.43;;;7.60;99.90;;;;;;5071211;28;20525;-76
2022/03/31 00:37:24;;;;;;;9.27;5.47;;;7.60;99.90;;;;;;5074831;28;20461;-76
2022/03/31 00:39:51;;;;;;;8.67;5.03;;;7.60;99.90;;;;;;5074739;28;20469;-76
2022/03/31 00:42:18;;;;;;;11.93;6.07;;;7.50;99.90;;;;;;5072809;28;21018;-76
2022/03/31 00:44:45;;;;;;;5.20;3.90;;;7.50;99.90;;;;;;5072323;28;20461;-75
2022/03/31 00:47:12;;;;;;;8.27;6.27;;;7.40;99.90;;;;;;5073079;28;21001;-75
2022/03/31 00:49:39;;;;;;;8.17;5.13;;;7.60;99.90;;;;;;5069770;28;20461;-75
2022/03/31 00:52:07;;;;;;;9.20;5.40;;;7.70;99.90;;;;;;5100921;22;20452;-71
2022/03/31 00:54:35;;;;;;;6.40;5.17;;;7.90;99.90;;;;;;5073266;28;20969;-74
2022/03/31 00:57:06;;;;;;;8.50;5.03;;;7.90;99.90;;;;;;5074756;28;20543;-73
2022/03/31 00:59:32;;;;;;;12.80;5.77;;;7.90;99.90;;;;;;5069530;28;20492;-73
2022/03/31 01:02:00;;;;;;;7.87;5.33;;;7.90;99.90;;;;;;5069642;28;20457;-74
2022/03/31 01:04:28;;;;;;;7.63;4.57;;;8.00;99.90;;;;;;5072765;28;21039;-74
2022/03/31 01:06:55;;;;;;;9.07;5.70;;;7.70;99.90;;;;;;5074898;28;20461;-71
2022/03/31 01:09:23;;;;;;;8.33;6.27;;;7.70;99.90;;;;;;5071522;28;20969;-72
2022/03/31 01:11:51;;;;;;;11.60;6.17;;;7.80;99.90;;;;;;5062276;28;20444;-72
2022/03/31 01:14:19;;;;;;;9.00;5.60;;;7.70;99.90;;;;;;5074795;28;20452;-73
2022/03/31 01:16:45;;;;;;;9.20;5.90;;;7.50;99.90;;;;;;5064209;28;20508;-72
2022/03/31 01:19:13;;;;;;;10.77;5.90;;;7.50;99.90;;;;;;5070948;28;20424;-73
2022/03/31 01:21:41;;;;;;;6.60;4.17;;;7.40;99.90;;;;;;5066509;28;20517;-73
2022/03/31 01:24:12;;;;;;;9.07;4.83;;;7.40;99.90;;;;;;5075704;28;20624;-73
2022/03/31 01:26:39;;;;;;;10.27;7.27;;;7.20;99.90;;;;;;5072879;28;20429;-73
2022/03/31 01:29:08;;;;;;;5.80;3.53;;;7.20;99.90;;;;;;5068595;28;20584;-74
2022/03/31 01:31:35;;;;;;;9.80;4.70;;;7.10;99.90;;;;;;5071496;28;20468;-73
2022/03/31 01:34:01;;;;;;;9.00;6.63;;;7.00;99.90;;;;;;5071856;28;20460;-73
2022/03/31 01:36:28;;;;;;;11.73;7.60;;;7.00;99.90;;;;;;5072327;28;20432;-73
2022/03/31 01:38:55;;;;;;;9.40;5.77;;;7.00;99.90;;;;;;5070771;28;20461;-73
2022/03/31 01:41:24;;;;;;;6.63;4.97;;;7.00;99.90;;;;;;5073269;28;20431;-72
2022/03/31 01:43:50;;;;;;;11.30;6.17;;;7.00;99.90;;;;;;5072017;28;20502;-71
2022/03/31 01:46:17;;;;;;;10.73;6.40;;;7.10;99.90;;;;;;5076069;28;20434;-72
2022/03/31 01:48:44;;;;;;;10.80;5.83;;;7.10;99.90;;;;;;5072941;28;20550;-71
2022/03/31 01:51:12;;;;;;;8.10;5.40;;;7.10;99.90;;;;;;5076463;28;20534;-72
2022/03/31 01:53:39;;;;;;;9.83;6.37;;;7.10;99.90;;;;;;5072180;28;21080;-72
2022/03/31 01:56:07;;;;;;;11.40;8.57;;;7.00;99.90;;;;;;5075713;28;20462;-72
2022/03/31 01:58:35;;;;;;;10.43;6.10;;;7.10;99.90;;;;;;5071086;28;20440;-72
2022/03/31 02:01:02;;;;;;;14.03;7.33;;;7.30;99.90;;;;;;5069855;28;20432;-72
2022/03/31 02:03:29;;;;;;;6.97;4.43;;;7.30;99.90;;;;;;5071670;28;20477;-72
2022/03/31 02:05:56;;;;;;;13.13;6.70;;;7.40;99.90;;;;;;5073837;28;20461;-74
2022/03/31 02:08:22;;;;;;;8.67;5.87;;;7.30;99.90;;;;;;5071543;28;20433;-72
2022/03/31 02:10:49;;;;;;;11.03;6.57;;;7.30;99.90;;;;;;5073747;28;20855;-72
2022/03/31 02:13:16;;;;;;;7.40;5.50;;;7.40;99.90;;;;;;5071224;28;20460;-72
2022/03/31 02:15:44;;;;;;;9.97;6.60;;;7.50;99.90;;;;;;5065801;28;20555;-72
2022/03/31 02:18:11;;;;;;;9.30;6.23;;;7.30;99.90;;;;;;5072873;28;20458;-71
2022/03/31 02:20:39;;;;;;;6.60;3.80;;;7.30;99.90;;;;;;5072061;28;20456;-72
2022/03/31 02:23:07;;;;;;;11.70;5.93;;;7.20;99.90;;;;;;5077209;28;20673;-71
2022/03/31 02:25:34;;;;;;;7.40;5.80;;;7.00;99.90;;;;;;5073295;28;20433;-71
2022/03/31 02:28:01;;;;;;;8.73;5.60;;;7.00;99.90;;;;;;5069821;28;20441;-72
2022/03/31 02:30:28;;;;;;;14.37;6.43;;;6.90;99.90;;;;;;5069290;28;20931;-72
2022/03/31 02:32:58;;;;;;;8.10;6.63;;;7.00;99.90;;;;;;5073096;28;20461;-72
2022/03/31 02:35:25;;;;;;;7.53;4.57;;;6.90;99.90;;;;;;5071203;28;20956;-72
2022/03/31 02:37:51;;;;;;;8.90;6.50;;;7.00;99.90;;;;;;5072610;28;20462;-71
2022/03/31 02:40:18;;;;;;;7.90;6.00;;;7.00;99.90;;;;;;5076238;28;20454;-71
2022/03/31 02:42:45;;;;;;;5.93;3.80;;;7.00;99.90;;;;;;5071661;28;20485;-71
2022/03/31 02:45:12;;;;;;;15.10;6.23;;;6.90;99.90;;;;;;5068211;28;20537;-74
2022/03/31 02:47:38;;;;;;;10.13;4.90;;;6.70;99.90;;;;;;5070453;28;20440;-72
2022/03/31 02:50:08;;;;;;;2.30;2.10;;;6.60;99.90;;;;;;5075139;28;20472;-72
2022/03/31 02:55:28;;;;;;;3.13;2.33;;;6.50;99.90;;;;;;5063733;28;20740;-72
2022/03/31 02:57:55;;;;;;;8.93;4.10;;;6.40;99.90;;;;;;5064494;28;21908;-73
2022/03/31 03:00:23;;;;;;;5.63;3.17;;;6.40;99.90;;;;;;5068323;28;20477;-72
2022/03/31 03:02:49;;;;;;;6.67;2.67;;;6.50;99.90;;;;;;5076862;28;20556;-72
2022/03/31 03:05:18;;;;;;;7.70;3.60;;;6.50;99.90;;;;;;5067607;28;20830;-72
2022/03/31 03:07:44;;;;;;;3.97;3.20;;;6.30;99.90;;;;;;5069744;28;20505;-73
2022/03/31 03:10:13;;;;;;;11.37;6.40;;;6.30;99.90;;;;;;5071003;28;20489;-73
2022/03/31 03:12:40;;;;;;;13.10;8.20;;;6.30;99.90;;;;;;5071802;28;20457;-73
2022/03/31 03:15:07;;;;;;;5.13;3.90;;;6.40;99.90;;;;;;5066662;28;20860;-72
2022/03/31 03:17:34;;;;;;;9.43;5.17;;;6.40;99.90;;;;;;5062630;28;20461;-72
2022/03/31 03:20:01;;;;;;;15.20;7.93;;;6.40;99.90;;;;;;5069114;28;20487;-73
2022/03/31 03:22:29;;;;;;;11.03;3.73;;;6.50;99.90;;;;;;5076144;28;20522;-72
2022/03/31 03:24:55;;;;;;;16.40;7.13;;;6.60;99.90;;;;;;5069608;28;20421;-73
2022/03/31 03:27:22;;;;;;;13.73;7.50;;;6.50;99.90;;;;;;5073199;28;20433;-72
2022/03/31 03:29:48;;;;;;;8.70;2.87;;;6.60;99.90;;;;;;5063351;28;21267;-72
2022/03/31 03:32:15;;;;;;;10.07;5.90;;;6.60;99.90;;;;;;5079724;28;21130;-72
2022/03/31 03:34:42;;;;;;;6.90;4.97;;;6.50;99.90;;;;;;5083329;28;20457;-73
2022/03/31 03:37:09;;;;;;;8.80;5.50;;;6.50;99.90;;;;;;5075088;28;20549;-73
2022/03/31 03:39:38;;;;;;;10.20;5.80;;;6.40;99.90;;;;;;5079869;28;20465;-73
2022/03/31 03:42:07;;;;;;;8.63;7.90;;;6.30;99.90;;;;;;5082140;28;20958;-73
2022/03/31 03:44:34;;;;;;;10.60;6.27;;;6.40;99.90;;;;;;5080018;28;20440;-73
2022/03/31 03:47:01;;;;;;;6.10;4.70;;;6.40;99.90;;;;;;5080738;28;20444;-73
2022/03/31 03:49:27;;;;;;;13.00;5.93;;;6.40;99.90;;;;;;5076509;28;20531;-73
2022/03/31 03:51:55;;;;;;;6.50;3.97;;;6.40;99.90;;;;;;5069864;28;20440;-73
2022/03/31 03:54:21;;;;;;;14.00;7.13;;;6.40;99.90;;;;;;5075002;28;20433;-73
2022/03/31 03:56:50;;;;;;;9.73;6.30;;;6.30;99.90;;;;;;5078718;28;20537;-73
2022/03/31 03:59:16;;;;;;;10.70;7.80;;;6.50;99.90;;;;;;5072397;28;20506;-73
2022/03/31 04:01:43;;;;;;;9.50;4.90;;;6.50;99.90;;;;;;5075543;28;21132;-73
2022/03/31 04:04:10;;;;;;;14.93;7.63;;;6.50;99.90;;;;;;5078093;28;20546;-73
2022/03/31 04:06:37;;;;;;;14.30;5.20;;;6.60;99.90;;;;;;5078205;28;20425;-73
2022/03/31 04:09:04;;;;;;;14.10;6.80;;;6.70;99.90;;;;;;5079297;28;20581;-73
2022/03/31 04:11:30;;;;;;;9.07;6.20;;;6.60;99.90;;;;;;5071994;28;20463;-73
2022/03/31 04:13:58;;;;;;;13.73;7.10;;;6.60;99.90;;;;;;5082030;28;20531;-73
2022/03/31 04:16:25;;;;;;;14.13;7.77;;;6.70;99.90;;;;;;5078478;28;20558;-73
2022/03/31 04:18:52;;;;;;;9.03;6.63;;;6.80;99.90;;;;;;5081461;28;20416;-73
2022/03/31 04:21:18;;;;;;;13.33;7.20;;;7.00;99.90;;;;;;5084170;28;20535;-73
2022/03/31 04:23:45;;;;;;;11.33;7.40;;;6.90;99.90;;;;;;5080130;28;20474;-73
2022/03/31 04:26:12;;;;;;;11.20;5.77;;;6.80;99.90;;;;;;5083269;28;20416;-73
2022/03/31 04:28:38;;;;;;;13.40;8.37;;;6.90;99.90;;;;;;5083253;28;20504;-73
2022/03/31 04:31:06;;;;;;;10.83;6.60;;;6.80;99.90;;;;;;5083577;28;20445;-73
2022/03/31 04:33:33;;;;;;;7.53;5.63;;;6.80;99.90;;;;;;5088809;28;20580;-73
2022/03/31 04:36:00;;;;;;;10.73;5.93;;;7.00;99.90;;;;;;5085494;28;20513;-73
2022/03/31 04:38:26;;;;;;;22.30;8.30;;;7.00;99.90;;;;;;5086996;28;20446;-73
2022/03/31 04:40:53;;;;;;;12.90;6.83;;;7.00;99.90;;;;;;5081150;28;20947;-73
2022/03/31 04:43:20;;;;;;;17.63;8.20;;;7.20;99.90;;;;;;5084439;28;20464;-73
2022/03/31 04:45:46;;;;;;;16.93;7.23;;;7.10;99.90;;;;;;5089199;28;20644;-73
2022/03/31 04:48:14;;;;;;;11.50;5.73;;;7.10;99.90;;;;;;5088221;28;20424;-73
2022/03/31 04:50:43;;;;;;;12.13;7.70;;;7.10;99.90;;;;;;5086720;28;20432;-73
2022/03/31 04:53:11;;;;;;;15.43;8.97;;;7.10;99.90;;;;;;5081905;28;20456;-73
2022/03/31 04:55:38;;;;;;;13.53;9.00;;;7.10;99.90;;;;;;5085645;28;20845;-73
2022/03/31 04:58:05;;;;;;;9.87;5.63;;;6.90;99.90;;;;;;5074111;28;20519;-74
2022/03/31 05:00:32;;;;;;;12.40;6.97;;;6.90;99.90;;;;;;5078490;28;20416;-73
2022/03/31 05:02:59;;;;;;;14.20;9.23;;;6.80;99.90;;;;;;5076843;28;20857;-73
2022/03/31 05:05:27;;;;;;;13.13;7.33;;;6.80;99.90;;;;;;5077004;28;20440;-73
2022/03/31 05:07:54;;;;;;;19.40;7.50;;;6.70;99.90;;;;;;5077875;28;20515;-73
2022/03/31 05:10:21;;;;;;;30.50;9.13;;;6.70;99.90;;;;;;5080472;28;20507;-72
2022/03/31 05:12:47;;;;;;;10.17;5.87;;;6.70;99.90;;;;;;5073792;28;20622;-72
2022/03/31 05:15:14;;;;;;;16.00;6.77;;;6.80;99.90;;;;;;5076462;28;20457;-72
2022/03/31 05:17:41;;;;;;;27.03;7.37;;;6.80;99.90;;;;;;5077558;28;20425;-72
2022/03/31 05:20:14;;;;;;;22.23;7.03;;;6.90;99.90;;;;;;5075105;28;20442;-76
2022/03/31 05:22:42;;;;;;;11.73;7.10;;;6.80;99.90;;;;;;5076915;28;20465;-74
2022/03/31 05:25:11;;;;;;;17.20;7.77;;;6.70;99.90;;;;;;5072334;28;20811;-74
2022/03/31 05:27:43;;;;;;;8.40;6.27;;;6.70;99.90;;;;;;5076194;28;20424;-74
2022/03/31 05:30:11;;;;;;;10.87;5.50;;;6.60;99.90;;;;;;5080076;28;20454;-75
2022/03/31 05:32:37;;;;;;;12.37;5.80;;;6.60;99.90;;;;;;5076380;28;20575;-74
2022/03/31 05:35:05;;;;;;;12.07;7.03;;;6.50;99.90;;;;;;5075573;28;20460;-74
2022/03/31 05:37:31;;;;;;;12.60;7.07;;;6.40;99.90;;;;;;5077977;28;20425;-74
2022/03/31 05:40:04;;;;;;;9.67;6.17;;;6.50;99.90;;;;;;5074348;28;20432;-74
2022/03/31 05:42:31;;;;;;;10.60;6.00;;;6.60;99.90;;;;;;5076445;28;21045;-72
2022/03/31 05:44:58;;;;;;;12.77;8.13;;;6.30;99.90;;;;;;5074124;28;20440;-73
2022/03/31 05:47:25;;;;;;;21.40;7.17;;;6.40;99.90;;;;;;5076774;28;21016;-73
2022/03/31 05:49:52;;;;;;;10.70;7.83;;;6.50;99.90;;;;;;5079011;28;20436;-73
2022/03/31 05:52:18;;;;;;;8.57;5.90;;;6.40;99.90;;;;;;5080848;28;20473;-73
2022/03/31 05:54:45;;;;;;;14.13;7.13;;;6.40;99.90;;;;;;5080639;28;20424;-73
2022/03/31 05:57:14;;;;;;;9.60;6.10;;;6.40;99.90;;;;;;5082664;28;20825;-74
2022/03/31 05:59:41;;;;;;;11.90;7.13;;;6.40;99.90;;;;;;5076855;28;20432;-73
2022/03/31 06:02:08;;;;;;;7.70;6.90;;;6.40;99.90;;;;;;5071167;28;20444;-73
2022/03/31 06:04:35;;;;;;;13.73;6.73;;;6.40;99.90;;;;;;5076596;28;20478;-73
2022/03/31 06:07:02;;;;;;;11.03;6.67;;;6.40;99.90;;;;;;5070592;28;20527;-73
2022/03/31 06:09:28;;;;;;;10.73;5.87;;;6.40;99.90;;;;;;5078841;28;20439;-73
2022/03/31 06:11:55;;;;;;;3.00;2.40;;;6.40;99.90;;;;;;5077702;28;20925;-73
2022/03/31 06:14:23;;;;;;;9.93;7.37;;;6.30;99.90;;;;;;5078805;28;20467;-73
2022/03/31 06:16:50;;;;;;;6.70;4.60;;;6.30;99.90;;;;;;5084592;28;20520;-73
2022/03/31 06:19:17;;;;;;;13.27;7.90;;;6.30;99.90;;;;;;5070485;28;20436;-74
2022/03/31 06:21:44;;;;;;;11.23;5.73;;;6.30;99.90;;;;;;5073302;28;20432;-73
2022/03/31 06:24:11;;;;;;;37.77;7.00;;;6.40;99.90;;;;;;5075018;28;20503;-73
2022/03/31 06:26:38;;;;;;;8.90;7.10;;;6.50;99.90;;;;;;5080881;28;20421;-73
2022/03/31 06:29:07;;;;;;;10.63;6.17;;;6.50;99.90;;;;;;5074961;28;21100;-73
2022/03/31 06:31:37;;;;;;;10.03;6.37;;;6.70;99.90;;;;;;5072327;28;20449;-73
2022/03/31 06:34:04;;;;;;;11.80;5.87;;;6.50;99.90;;;;;;5078856;28;20496;-73
2022/03/31 06:36:31;;;;;;;10.03;6.70;;;6.60;99.90;;;;;;5074713;28;20452;-72
2022/03/31 06:38:58;;;;;;;10.50;6.80;;;6.70;99.90;;;;;;5075377;28;20424;-72
2022/03/31 06:41:24;;;;;;;8.77;6.27;;;6.70;99.90;;;;;;5079348;28;20442;-73
2022/03/31 06:43:52;;;;;;;14.43;6.37;;;6.90;99.90;;;;;;5077424;28;20538;-73
2022/03/31 06:46:19;;;;;;;12.20;7.50;;;7.00;99.90;;;;;;5077044;28;20446;-73
2022/03/31 06:48:48;;;;;;;12.50;6.77;;;7.10;99.90;;;;;;5063773;28;21071;-73
2022/03/31 06:51:16;;;;;;;17.03;8.80;;;7.10;99.90;;;;;;5070082;28;20460;-72
2022/03/31 06:53:44;;;;;;;12.37;7.40;;;7.10;99.90;;;;;;5069018;28;20870;-73
2022/03/31 06:56:13;;;;;;;9.50;7.03;;;7.00;99.90;;;;;;5070582;28;20911;-72
2022/03/31 06:58:40;;;;;;;10.13;6.53;;;6.90;99.90;;;;;;5071990;28;21212;-73
2022/03/31 07:01:07;;;;;;;12.80;6.13;;;6.90;99.90;;;;;;5077791;28;20852;-73
2022/03/31 07:03:34;;;;;;;19.17;9.20;;;6.80;99.90;;;;;;5076480;28;20462;-73
2022/03/31 07:06:02;;;;;;;7.00;4.70;;;6.90;99.90;;;;;;5063009;28;20455;-73
2022/03/31 07:08:30;;;;;;;15.80;7.83;;;7.00;99.90;;;;;;5078239;28;20447;-73
2022/03/31 07:10:56;;;;;;;9.50;5.70;;;7.00;99.90;;;;;;5074387;28;20447;-73
2022/03/31 07:13:30;;;;;;;17.33;6.30;;;7.10;99.90;;;;;;5146281;22;20417;-74
2022/03/31 07:16:11;;;;;;;10.03;6.10;;;7.00;99.90;;;;;;5075875;28;20492;-74
2022/03/31 07:25:40;;;;;;;;;;;;;;;;;;;;;
2022/03/31 07:28:14;;;;;;;11.83;5.10;;;7.30;99.90;;;;;;5031939;28;20433;-74
2022/03/31 07:30:46;;;;;;;5.70;3.97;;;7.20;99.90;;;;;;5055877;28;20516;-75
2022/03/31 07:36:24;;;;;;;3.73;3.20;;;6.90;99.90;;;;;;5060161;28;20480;-74
2022/03/31 07:39:08;;;;;;;5.60;4.63;;;6.90;99.90;;;;;;5045652;28;21036;-74
2022/03/31 07:41:50;;;;;;;4.70;2.97;;;6.90;99.90;;;;;;5058424;28;20545;-75
2022/03/31 07:44:21;;;;;;;10.80;3.90;;;6.90;99.90;;;;;;5059984;28;20445;-75
2022/03/31 07:46:59;;;;;;;4.90;3.63;;;6.80;99.90;;;;;;5051330;28;20972;-74
2022/03/31 07:49:33;;;;;;;7.20;5.40;;;7.00;99.90;;;;;;5059584;28;20469;-75
2022/03/31 07:55:08;;;;;;;8.97;4.63;;;7.10;99.90;;;;;;5051137;28;20465;-75
2022/03/31 07:57:37;;;;;;;4.37;2.63;;;7.20;99.90;;;;;;5053438;28;20458;-74
2022/03/31 08:00:05;;;;;;;6.73;4.87;;;7.40;99.90;;;;;;5050353;28;20448;-74
2022/03/31 08:02:34;;;;;;;5.20;4.27;;;7.50;99.90;;;;;;5057162;28;20483;-75
2022/03/31 08:05:01;;;;;;;5.10;3.33;;;7.30;99.90;;;;;;5039074;28;20476;-74
2022/03/31 08:07:30;;;;;;;9.80;6.00;;;7.30;99.90;;;;;;5055247;28;20455;-74
2022/03/31 08:09:59;;;;;;;7.40;5.07;;;7.20;99.90;;;;;;5061581;28;20464;-74
2022/03/31 08:12:28;;;;;;;10.00;6.07;;;7.40;99.90;;;;;;5053442;28;20439;-74
2022/03/31 08:14:55;;;;;;;9.07;6.37;;;7.40;99.90;;;;;;5057093;28;20482;-75
2022/03/31 08:17:22;;;;;;;5.80;4.77;;;7.50;99.90;;;;;;5061558;28;20446;-74
2022/03/31 08:19:49;;;;;;;8.03;6.00;;;7.40;99.90;;;;;;5058827;28;21043;-75
2022/03/31 08:22:17;;;;;;;8.03;6.00;;;7.30;99.90;;;;;;5061140;28;20991;-75
2022/03/31 08:24:47;;;;;;;3.37;2.43;;;7.30;99.90;;;;;;5058899;28;20474;-74
2022/03/31 08:27:17;;;;;;;3.87;2.60;;;7.50;99.90;;;;;;5057724;28;20556;-74
2022/03/31 08:29:47;;;;;;;8.50;5.80;;;7.30;99.90;;;;;;5059813;28;20486;-74
2022/03/31 08:32:15;;;;;;;7.37;5.17;;;7.40;99.90;;;;;;5053922;28;20429;-74
2022/03/31 08:34:43;;;;;;;5.23;3.40;;;7.50;99.90;;;;;;5061124;28;20535;-74
2022/03/31 08:37:11;;;;;;;3.80;3.50;;;7.60;99.90;;;;;;5060192;28;20478;-74
2022/03/31 08:45:22;;;;;;;5.73;3.60;;;7.20;99.90;;;;;;4982896;28;20515;-75
2022/03/31 08:54:31;;;;;;;12.53;5.70;;;7.50;99.90;;;;;;4958746;28;20463;-74
2022/03/31 08:57:09;;;;;;;9.20;4.83;;;7.60;99.90;;;;;;5011818;28;21087;-73
2022/03/31 08:59:41;;;;;;;3.07;2.33;;;7.70;99.90;;;;;;5007071;28;20506;-76
2022/03/31 09:02:10;;;;;;;9.07;3.87;;;7.70;99.90;;;;;;5005907;28;20461;-76
2022/03/31 09:05:19;;;;;;;12.30;6.77;;;7.90;99.90;;;;;;5013196;28;20507;-73
2022/03/31 09:08:07;;;;;;;10.90;5.63;;;8.00;99.90;;;;;;5004782;28;20456;-76
2022/03/31 09:10:38;;;;;;;10.17;6.30;;;8.10;99.90;;;;;;5002475;28;20512;-76
2022/03/31 09:13:16;;;;;;;9.13;6.33;;;8.00;99.90;;;;;;5010650;28;20825;-74
2022/03/31 09:15:49;;;;;;;9.93;5.23;;;7.90;99.90;;;;;;5017170;28;20447;-74
2022/03/31 09:18:19;;;;;;;18.67;10.37;;;7.80;99.90;;;;;;5020606;28;20624;-73
2022/03/31 09:20:48;;;;;;;16.93;6.70;;;7.90;99.90;;;;;;5026710;28;20526;-75
2022/03/31 09:23:16;;;;;;;12.33;8.23;;;7.80;99.90;;;;;;5019886;28;20457;-76
2022/03/31 09:25:42;;;;;;;12.87;7.10;;;7.80;99.90;;;;;;5024786;28;20465;-74
2022/03/31 09:28:15;;;;;;;8.37;6.90;;;7.90;99.90;;;;;;5022883;28;20457;-75
2022/03/31 09:30:55;;;;;;;11.77;7.93;;;7.70;99.90;;;;;;5050889;22;20495;-75
2022/03/31 09:33:55;;;;;;;15.10;6.60;;;7.80;99.90;;;;;;5056620;28;20501;-76
2022/03/31 09:36:29;;;;;;;15.13;8.77;;;8.20;99.90;;;;;;5058387;28;20621;-74
2022/03/31 09:39:19;;;;;;;13.43;8.80;;;8.80;99.90;;;;;;5054476;28;20463;-76
2022/03/31 09:42:03;;;;;;;11.47;6.27;;;8.90;99.90;;;;;;5021720;28;20451;-75
2022/03/31 09:44:31;;;;;;;17.43;10.03;;;8.60;99.90;;;;;;5028890;28;21107;-75
2022/03/31 09:47:12;;;;;;;16.77;9.90;;;8.80;99.90;;;;;;5030992;28;20982;-76
2022/03/31 09:49:55;;;;;;;25.30;10.20;;;8.90;99.90;;;;;;5016853;28;20481;-75
2022/03/31 09:52:41;;;;;;;16.70;9.57;;;9.00;99.90;;;;;;5023462;28;20455;-76
2022/03/31 09:55:18;;;;;;;15.67;7.50;;;8.90;99.90;;;;;;5029172;28;20503;-74
2022/03/31 09:58:05;;;;;;;25.80;12.03;;;8.80;99.90;;;;;;5023865;28;20479;-75
2022/03/31 10:00:38;;;;;;;16.57;9.93;;;8.90;99.90;;;;;;5021594;28;20476;-74
2022/03/31 10:03:06;;;;;;;7.73;6.17;;;8.90;99.90;;;;;;5027759;28;20507;-76
2022/03/31 10:05:34;;;;;;;17.07;7.70;;;8.80;99.90;;;;;;5016022;28;20424;-75
2022/03/31 10:08:05;;;;;;;22.20;9.60;;;8.60;99.90;;;;;;5019586;28;20850;-75
2022/03/31 10:10:33;;;;;;;19.67;8.60;;;8.40;99.90;;;;;;5024393;28;20511;-74
2022/03/31 10:13:08;;;;;;;18.37;9.37;;;8.30;99.90;;;;;;5024946;28;20435;-75
2022/03/31 10:15:37;;;;;;;21.13;10.07;;;8.30;99.90;;;;;;5016711;28;20464;-76
2022/03/31 10:18:04;;;;;;;23.20;10.83;;;8.50;99.90;;;;;;5020468;28;20474;-75
2022/03/31 10:20:34;;;;;;;18.77;9.50;;;8.80;99.90;;;;;;5046350;22;20486;-74
2022/03/31 10:25:50;;;;;;;22.03;11.17;;;8.80;99.90;;;;;;5056840;28;20930;-75
2022/03/31 10:28:22;;;;;;;20.10;10.93;;;8.60;99.90;;;;;;5060197;28;20574;-74
2022/03/31 10:30:56;;;;;;;18.60;10.23;;;8.80;99.90;;;;;;5063773;28;20906;-76
2022/03/31 10:33:34;;;;;;;17.43;8.33;;;8.70;99.90;;;;;;5059468;28;20428;-76
2022/03/31 10:36:09;;;;;;;27.83;12.07;;;8.70;99.90;;;;;;5063222;28;20476;-76
2022/03/31 10:38:38;;;;;;;13.67;5.73;;;8.80;99.90;;;;;;5061855;28;20469;-76
2022/03/31 10:41:08;;;;;;;20.83;11.00;;;9.10;99.90;;;;;;5066027;22;20876;-74
2022/03/31 10:43:39;;;;;;;20.27;9.47;;;9.30;99.90;;;;;;5019644;28;20839;-76
2022/03/31 10:46:15;;;;;;;21.80;8.20;;;9.70;99.90;;;;;;5021415;28;20452;-76
2022/03/31 10:48:49;;;;;;;11.50;8.07;;;9.60;99.90;;;;;;5023578;28;20448;-75
2022/03/31 10:51:16;;;;;;;17.67;9.00;;;9.60;99.90;;;;;;5021858;28;21025;-76
2022/03/31 10:53:50;;;;;;;25.30;10.63;;;9.40;99.90;;;;;;5027631;28;20466;-76
2022/03/31 10:56:24;;;;;;;15.93;8.00;;;9.50;99.90;;;;;;5017932;28;20926;-76
2022/03/31 10:58:53;;;;;;;21.47;9.80;;;9.60;99.90;;;;;;5021872;28;20469;-75
2022/03/31 11:01:21;;;;;;;24.20;12.90;;;9.20;99.90;;;;;;5020599;28;20500;-76
2022/03/31 11:03:50;;;;;;;11.50;6.53;;;9.20;99.90;;;;;;5022690;28;20480;-76
2022/03/31 11:06:19;;;;;;;25.43;10.47;;;9.20;99.90;;;;;;5032973;28;20468;-76
2022/03/31 11:08:49;;;;;;;14.33;8.60;;;9.30;99.90;;;;;;5028163;28;20457;-76
2022/03/31 11:11:28;;;;;;;21.83;10.50;;;9.50;99.90;;;;;;5025876;28;20579;-76
2022/03/31 11:13:56;;;;;;;21.80;8.40;;;9.70;99.90;;;;;;5025943;28;20460;-76
2022/03/31 11:16:27;;;;;;;19.70;9.83;;;9.80;99.90;;;;;;5025499;28;20438;-77
2022/03/31 11:18:55;;;;;;;20.00;8.83;;;10.00;99.90;;;;;;5027531;28;21081;-75
2022/03/31 11:21:23;;;;;;;15.63;8.23;;;10.00;99.90;;;;;;5031130;28;20727;-76
2022/03/31 11:23:53;;;;;;;17.07;8.83;;;10.20;99.90;;;;;;5023394;28;20838;-76
2022/03/31 11:26:30;;;;;;;18.50;11.13;;;10.20;99.90;;;;;;5023870;28;20964;-77
2022/03/31 11:28:59;;;;;;;19.57;9.73;;;10.30;99.90;;;;;;5019695;28;20455;-75
2022/03/31 11:31:29;;;;;;;13.23;7.17;;;10.40;99.90;;;;;;5030417;28;20505;-77
2022/03/31 11:33:56;;;;;;;12.63;7.70;;;10.00;99.90;;;;;;5022863;28;20468;-74
2022/03/31 11:36:28;;;;;;;17.10;8.23;;;9.90;99.90;;;;;;5024796;28;20466;-74
2022/03/31 11:38:59;;;;;;;14.50;8.57;;;9.70;99.90;;;;;;5023566;28;20488;-76
2022/03/31 11:41:38;;;;;;;14.47;8.23;;;9.70;99.90;;;;;;5020483;28;20494;-76
2022/03/31 11:44:09;;;;;;;20.40;8.00;;;9.70;99.90;;;;;;5029589;28;20456;-75
2022/03/31 11:46:40;;;;;;;9.90;6.50;;;9.90;99.90;;;;;;5024787;28;20454;-75
2022/03/31 11:49:14;;;;;;;9.57;5.87;;;9.70;99.90;;;;;;5019863;28;20543;-74
2022/03/31 11:51:51;;;;;;;17.07;6.97;;;9.50;99.90;;;;;;5022681;28;20964;-75
2022/03/31 11:54:22;;;;;;;2.97;2.20;;;9.30;99.90;;;;;;5019544;28;20927;-75
2022/03/31 11:57:02;;;;;;;11.30;6.80;;;9.20;99.90;;;;;;5019159;28;20453;-76
2022/03/31 11:59:30;;;;;;;13.97;7.50;;;9.20;99.90;;;;;;5019619;28;20645;-76
2022/03/31 12:01:57;;;;;;;14.87;8.50;;;9.30;99.90;;;;;;5018578;28;20442;-75
2022/03/31 12:04:26;;;;;;;13.00;6.83;;;9.50;99.90;;;;;;5015120;28;20462;-76
2022/03/31 12:06:55;;;;;;;13.37;7.80;;;9.70;99.90;;;;;;5026539;28;20467;-75
2022/03/31 12:09:26;;;;;;;13.73;6.50;;;9.60;99.90;;;;;;5025844;28;20463;-77
2022/03/31 12:11:53;;;;;;;12.83;7.47;;;9.50;99.90;;;;;;5025476;28;20431;-75
2022/03/31 12:14:20;;;;;;;16.40;8.10;;;9.40;99.90;;;;;;5031732;28;20431;-76
2022/03/31 12:16:51;;;;;;;8.13;5.47;;;9.40;99.90;;;;;;5020493;28;21001;-75
2022/03/31 12:19:18;;;;;;;5.67;3.50;;;9.40;99.90;;;;;;5021912;28;20508;-75
2022/03/31 12:21:47;;;;;;;8.30;4.67;;;9.30;99.90;;;;;;5027212;28;20463;-74
2022/03/31 12:24:20;;;;;;;2.30;2.20;;;9.30;99.90;;;;;;5023532;28;20487;-74
2022/03/31 12:27:03;;;;;;;8.40;5.27;;;9.10;99.90;;;;;;5017082;28;20467;-75
2022/03/31 12:29:32;;;;;;;5.67;5.10;;;8.90;99.90;;;;;;5022844;28;20538;-76
2022/03/31 12:32:07;;;;;;;5.87;4.10;;;8.90;99.90;;;;;;5026092;28;21008;-75
2022/03/31 12:34:41;;;;;;;6.60;3.77;;;8.90;99.90;;;;;;5024899;28;20855;-76
2022/03/31 12:37:08;;;;;;;11.83;6.43;;;8.90;99.90;;;;;;5022310;28;20459;-74
2022/03/31 12:39:43;;;;;;;11.67;5.87;;;8.80;99.90;;;;;;5025508;28;20476;-74
2022/03/31 12:42:20;;;;;;;12.03;5.43;;;8.80;99.90;;;;;;5024089;28;20952;-75
2022/03/31 12:44:51;;;;;;;8.20;4.90;;;8.90;99.90;;;;;;5023488;28;20419;-75
2022/03/31 12:47:32;;;;;;;11.47;5.20;;;9.00;99.90;;;;;;5027626;28;20483;-75
2022/03/31 12:49:59;;;;;;;12.57;7.37;;;9.00;99.90;;;;;;5018373;28;20768;-75
2022/03/31 12:52:29;;;;;;;8.93;5.33;;;9.10;99.90;;;;;;5026681;28;20546;-75
2022/03/31 12:55:01;;;;;;;12.20;6.50;;;8.90;99.90;;;;;;5027169;28;20435;-75
2022/03/31 12:57:32;;;;;;;10.87;5.47;;;8.50;99.90;;;;;;5028093;28;20707;-75
2022/03/31 13:00:07;;;;;;;3.67;2.43;;;8.40;99.90;;;;;;5024649;28;20464;-75
2022/03/31 13:02:45;;;;;;;11.43;6.23;;;8.30;99.90;;;;;;5027380;28;20452;-76
2022/03/31 13:05:22;;;;;;;4.00;2.50;;;8.30;99.90;;;;;;5022651;28;20438;-76
2022/03/31 13:07:50;;;;;;;12.37;8.03;;;8.40;99.90;;;;;;5023713;28;20461;-75
2022/03/31 13:10:21;;;;;;;12.87;6.20;;;8.40;99.90;;;;;;5017806;28;20503;-75
2022/03/31 13:12:52;;;;;;;10.90;4.67;;;8.50;99.90;;;;;;5030064;28;20415;-76
2022/03/31 13:15:26;;;;;;;6.37;4.77;;;8.70;99.90;;;;;;5029891;28;20491;-75
2022/03/31 13:18:02;;;;;;;18.87;8.87;;;8.40;99.90;;;;;;5028643;28;20484;-75
2022/03/31 13:20:43;;;;;;;16.27;9.80;;;8.50;99.90;;;;;;5030320;28;20480;-74
2022/03/31 13:23:26;;;;;;;21.53;7.60;;;8.60;99.90;;;;;;5025701;28;20465;-74
2022/03/31 13:26:10;;;;;;;9.80;4.27;;;8.60;99.90;;;;;;5034244;28;21244;-73
2022/03/31 13:28:47;;;;;;;14.90;7.67;;;8.70;99.90;;;;;;5030896;28;20429;-74
2022/03/31 13:31:25;;;;;;;11.27;5.97;;;8.80;99.90;;;;;;5025621;28;20479;-76
2022/03/31 13:34:21;;;;;;;8.90;4.67;;;8.50;99.90;;;;;;5030179;28;20455;-75